sensor_id;sensor_type;location;lat;lon;timestamp;temperature;humidity
38265;DHT22;24062;47.480;8.768;2024-01-16T00:01:13;19.50;51.30
38265;DHT22;24062;47.480;8.768;2024-01-16T00:03:42;19.40;51.30
38265;DHT22;24062;47.480;8.768;2024-01-16T00:06:11;19.40;51.30
38265;DHT22;24062;47.480;8.768;2024-01-16T00:08:38;19.40;51.30
38265;DHT22;24062;47.480;8.768;2024-01-16T00:11:05;19.40;51.40
38265;DHT22;24062;47.480;8.768;2024-01-16T00:13:32;19.30;51.30
38265;DHT22;24062;47.480;8.768;2024-01-16T00:15:59;19.30;51.40
38265;DHT22;24062;47.480;8.768;2024-01-16T00:18:28;19.30;51.40
38265;DHT22;24062;47.480;8.768;2024-01-16T00:20:55;19.30;51.40
38265;DHT22;24062;47.480;8.768;2024-01-16T00:23:23;19.20;51.30
38265;DHT22;24062;47.480;8.768;2024-01-16T00:25:50;19.20;51.40
38265;DHT22;24062;47.480;8.768;2024-01-16T00:28:17;19.20;51.40
38265;DHT22;24062;47.480;8.768;2024-01-16T00:30:45;19.20;51.40
38265;DHT22;24062;47.480;8.768;2024-01-16T00:33:12;19.10;51.40
38265;DHT22;24062;47.480;8.768;2024-01-16T00:35:39;19.10;51.30
38265;DHT22;24062;47.480;8.768;2024-01-16T00:38:06;19.10;51.40
38265;DHT22;24062;47.480;8.768;2024-01-16T00:40:34;19.00;51.30
38265;DHT22;24062;47.480;8.768;2024-01-16T00:43:01;19.00;51.30
38265;DHT22;24062;47.480;8.768;2024-01-16T00:45:28;19.00;51.30
38265;DHT22;24062;47.480;8.768;2024-01-16T00:47:55;19.00;51.40
38265;DHT22;24062;47.480;8.768;2024-01-16T00:50:22;19.00;51.30
38265;DHT22;24062;47.480;8.768;2024-01-16T00:52:50;19.00;51.40
38265;DHT22;24062;47.480;8.768;2024-01-16T00:55:16;19.00;51.40
38265;DHT22;24062;47.480;8.768;2024-01-16T00:57:45;18.90;51.30
38265;DHT22;24062;47.480;8.768;2024-01-16T01:00:12;18.90;51.30
38265;DHT22;24062;47.480;8.768;2024-01-16T01:02:39;18.90;51.30
38265;DHT22;24062;47.480;8.768;2024-01-16T01:05:07;18.90;51.40
38265;DHT22;24062;47.480;8.768;2024-01-16T01:07:34;18.90;51.30
38265;DHT22;24062;47.480;8.768;2024-01-16T01:10:02;18.90;51.30
38265;DHT22;24062;47.480;8.768;2024-01-16T01:12:29;18.90;51.30
38265;DHT22;24062;47.480;8.768;2024-01-16T01:14:57;18.80;51.20
38265;DHT22;24062;47.480;8.768;2024-01-16T01:17:24;18.80;51.30
38265;DHT22;24062;47.480;8.768;2024-01-16T01:19:51;18.80;51.30
38265;DHT22;24062;47.480;8.768;2024-01-16T01:22:18;18.80;51.30
38265;DHT22;24062;47.480;8.768;2024-01-16T01:24:44;18.70;51.30
38265;DHT22;24062;47.480;8.768;2024-01-16T01:27:11;18.80;51.30
38265;DHT22;24062;47.480;8.768;2024-01-16T01:29:38;18.70;51.30
38265;DHT22;24062;47.480;8.768;2024-01-16T01:32:07;18.70;51.30
38265;DHT22;24062;47.480;8.768;2024-01-16T01:34:33;18.70;51.40
38265;DHT22;24062;47.480;8.768;2024-01-16T01:37:01;18.70;51.40
38265;DHT22;24062;47.480;8.768;2024-01-16T01:39:27;18.70;51.30
38265;DHT22;24062;47.480;8.768;2024-01-16T01:41:55;18.70;51.30
38265;DHT22;24062;47.480;8.768;2024-01-16T01:44:22;18.70;51.30
38265;DHT22;24062;47.480;8.768;2024-01-16T01:46:50;18.70;51.40
38265;DHT22;24062;47.480;8.768;2024-01-16T01:49:19;18.60;51.30
38265;DHT22;24062;47.480;8.768;2024-01-16T01:51:46;18.60;51.30
38265;DHT22;24062;47.480;8.768;2024-01-16T01:54:13;18.60;51.30
38265;DHT22;24062;47.480;8.768;2024-01-16T01:56:43;18.60;51.30
38265;DHT22;24062;47.480;8.768;2024-01-16T01:59:11;18.60;51.30
38265;DHT22;24062;47.480;8.768;2024-01-16T02:01:39;18.50;51.20
38265;DHT22;24062;47.480;8.768;2024-01-16T02:04:08;18.50;51.20
38265;DHT22;24062;47.480;8.768;2024-01-16T02:06:38;18.50;51.20
38265;DHT22;24062;47.480;8.768;2024-01-16T02:09:05;18.50;51.20
38265;DHT22;24062;47.480;8.768;2024-01-16T02:11:33;18.50;51.20
38265;DHT22;24062;47.480;8.768;2024-01-16T02:14:00;18.50;51.30
38265;DHT22;24062;47.480;8.768;2024-01-16T02:16:35;18.50;51.30
38265;DHT22;24062;47.480;8.768;2024-01-16T02:19:02;18.40;51.20
38265;DHT22;24062;47.480;8.768;2024-01-16T02:21:33;18.40;51.20
38265;DHT22;24062;47.480;8.768;2024-01-16T02:24:03;18.50;51.30
38265;DHT22;24062;47.480;8.768;2024-01-16T02:26:32;18.40;51.20
38265;DHT22;24062;47.480;8.768;2024-01-16T02:29:00;18.40;51.20
38265;DHT22;24062;47.480;8.768;2024-01-16T02:31:27;18.40;51.30
38265;DHT22;24062;47.480;8.768;2024-01-16T02:33:54;18.40;51.30
38265;DHT22;24062;47.480;8.768;2024-01-16T02:36:21;18.40;51.30
38265;DHT22;24062;47.480;8.768;2024-01-16T02:38:48;18.40;51.30
38265;DHT22;24062;47.480;8.768;2024-01-16T02:41:17;18.30;51.20
38265;DHT22;24062;47.480;8.768;2024-01-16T02:43:44;18.30;51.20
38265;DHT22;24062;47.480;8.768;2024-01-16T02:46:11;18.30;51.20
38265;DHT22;24062;47.480;8.768;2024-01-16T02:48:38;18.30;51.20
38265;DHT22;24062;47.480;8.768;2024-01-16T02:51:05;18.30;51.30
38265;DHT22;24062;47.480;8.768;2024-01-16T02:53:32;18.30;51.20
38265;DHT22;24062;47.480;8.768;2024-01-16T02:55:59;18.50;51.20
38265;DHT22;24062;47.480;8.768;2024-01-16T02:58:28;18.50;51.10
38265;DHT22;24062;47.480;8.768;2024-01-16T03:00:55;18.60;51.00
38265;DHT22;24062;47.480;8.768;2024-01-16T03:03:23;18.70;51.00
38265;DHT22;24062;47.480;8.768;2024-01-16T03:05:50;18.80;50.90
38265;DHT22;24062;47.480;8.768;2024-01-16T03:08:17;18.80;50.80
38265;DHT22;24062;47.480;8.768;2024-01-16T03:10:44;18.90;50.80
38265;DHT22;24062;47.480;8.768;2024-01-16T03:13:11;19.00;50.80
38265;DHT22;24062;47.480;8.768;2024-01-16T03:15:39;19.10;50.70
38265;DHT22;24062;47.480;8.768;2024-01-16T03:18:06;19.20;50.70
38265;DHT22;24062;47.480;8.768;2024-01-16T03:20:33;19.30;50.60
38265;DHT22;24062;47.480;8.768;2024-01-16T03:23:00;19.30;50.50
38265;DHT22;24062;47.480;8.768;2024-01-16T03:25:27;19.40;50.40
38265;DHT22;24062;47.480;8.768;2024-01-16T03:27:54;19.50;50.40
38265;DHT22;24062;47.480;8.768;2024-01-16T03:30:20;19.60;50.40
38265;DHT22;24062;47.480;8.768;2024-01-16T03:32:49;19.60;50.30
38265;DHT22;24062;47.480;8.768;2024-01-16T03:35:16;19.60;50.20
38265;DHT22;24062;47.480;8.768;2024-01-16T03:37:42;19.60;50.10
38265;DHT22;24062;47.480;8.768;2024-01-16T03:40:10;19.70;50.20
38265;DHT22;24062;47.480;8.768;2024-01-16T03:42:38;19.80;50.20
38265;DHT22;24062;47.480;8.768;2024-01-16T03:45:06;19.80;50.10
38265;DHT22;24062;47.480;8.768;2024-01-16T03:47:33;19.90;50.10
38265;DHT22;24062;47.480;8.768;2024-01-16T03:50:02;19.90;50.00
38265;DHT22;24062;47.480;8.768;2024-01-16T03:52:29;19.90;49.90
38265;DHT22;24062;47.480;8.768;2024-01-16T03:54:56;19.90;49.90
38265;DHT22;24062;47.480;8.768;2024-01-16T03:57:23;20.00;49.90
38265;DHT22;24062;47.480;8.768;2024-01-16T03:59:50;20.00;49.80
38265;DHT22;24062;47.480;8.768;2024-01-16T04:02:17;20.10;49.80
38265;DHT22;24062;47.480;8.768;2024-01-16T04:04:44;20.10;49.70
38265;DHT22;24062;47.480;8.768;2024-01-16T04:07:12;20.10;49.70
38265;DHT22;24062;47.480;8.768;2024-01-16T04:09:39;20.20;49.70
38265;DHT22;24062;47.480;8.768;2024-01-16T04:12:06;20.20;49.70
38265;DHT22;24062;47.480;8.768;2024-01-16T04:14:33;20.20;49.60
38265;DHT22;24062;47.480;8.768;2024-01-16T04:17:01;20.20;49.50
38265;DHT22;24062;47.480;8.768;2024-01-16T04:19:28;20.20;49.50
38265;DHT22;24062;47.480;8.768;2024-01-16T04:21:59;20.20;49.50
38265;DHT22;24062;47.480;8.768;2024-01-16T04:24:27;20.30;49.50
38265;DHT22;24062;47.480;8.768;2024-01-16T04:26:54;20.30;49.50
38265;DHT22;24062;47.480;8.768;2024-01-16T04:29:21;20.30;49.40
38265;DHT22;24062;47.480;8.768;2024-01-16T04:31:48;20.30;49.40
38265;DHT22;24062;47.480;8.768;2024-01-16T04:34:15;20.40;49.40
38265;DHT22;24062;47.480;8.768;2024-01-16T04:36:42;20.40;49.40
38265;DHT22;24062;47.480;8.768;2024-01-16T04:39:09;20.40;49.30
38265;DHT22;24062;47.480;8.768;2024-01-16T04:41:37;20.40;49.30
38265;DHT22;24062;47.480;8.768;2024-01-16T04:44:04;20.40;49.30
38265;DHT22;24062;47.480;8.768;2024-01-16T04:46:31;20.40;49.30
38265;DHT22;24062;47.480;8.768;2024-01-16T04:48:58;20.40;49.20
38265;DHT22;24062;47.480;8.768;2024-01-16T04:51:25;20.50;49.30
38265;DHT22;24062;47.480;8.768;2024-01-16T04:53:52;20.50;49.30
38265;DHT22;24062;47.480;8.768;2024-01-16T04:56:19;20.50;49.20
38265;DHT22;24062;47.480;8.768;2024-01-16T04:58:47;20.50;49.20
38265;DHT22;24062;47.480;8.768;2024-01-16T05:01:14;20.50;49.10
38265;DHT22;24062;47.480;8.768;2024-01-16T05:03:41;20.50;49.10
38265;DHT22;24062;47.480;8.768;2024-01-16T05:06:13;20.50;49.10
38265;DHT22;24062;47.480;8.768;2024-01-16T05:08:40;20.60;49.10
38265;DHT22;24062;47.480;8.768;2024-01-16T05:11:07;20.60;49.10
38265;DHT22;24062;47.480;8.768;2024-01-16T05:13:34;20.60;49.10
38265;DHT22;24062;47.480;8.768;2024-01-16T05:16:03;20.60;49.00
38265;DHT22;24062;47.480;8.768;2024-01-16T05:18:30;20.60;49.00
38265;DHT22;24062;47.480;8.768;2024-01-16T05:20:58;20.70;49.10
38265;DHT22;24062;47.480;8.768;2024-01-16T05:23:25;20.70;49.00
38265;DHT22;24062;47.480;8.768;2024-01-16T05:25:51;20.70;49.10
38265;DHT22;24062;47.480;8.768;2024-01-16T05:28:18;20.70;49.00
38265;DHT22;24062;47.480;8.768;2024-01-16T05:30:45;20.70;49.00
38265;DHT22;24062;47.480;8.768;2024-01-16T05:33:13;20.70;49.00
38265;DHT22;24062;47.480;8.768;2024-01-16T05:35:41;20.80;49.10
38265;DHT22;24062;47.480;8.768;2024-01-16T05:38:08;20.80;49.10
38265;DHT22;24062;47.480;8.768;2024-01-16T05:40:37;20.80;49.00
38265;DHT22;24062;47.480;8.768;2024-01-16T05:43:04;20.80;49.00
38265;DHT22;24062;47.480;8.768;2024-01-16T05:45:31;20.80;49.00
38265;DHT22;24062;47.480;8.768;2024-01-16T05:47:58;20.80;49.60
38265;DHT22;24062;47.480;8.768;2024-01-16T05:50:26;20.80;49.00
38265;DHT22;24062;47.480;8.768;2024-01-16T05:52:53;20.80;49.00
38265;DHT22;24062;47.480;8.768;2024-01-16T05:55:20;20.80;49.00
38265;DHT22;24062;47.480;8.768;2024-01-16T05:57:48;20.90;49.10
38265;DHT22;24062;47.480;8.768;2024-01-16T06:00:15;20.90;49.00
38265;DHT22;24062;47.480;8.768;2024-01-16T06:02:43;20.90;49.10
38265;DHT22;24062;47.480;8.768;2024-01-16T06:05:10;20.90;49.00
38265;DHT22;24062;47.480;8.768;2024-01-16T06:07:38;20.90;49.00
38265;DHT22;24062;47.480;8.768;2024-01-16T06:10:07;20.90;49.00
38265;DHT22;24062;47.480;8.768;2024-01-16T06:12:35;20.90;49.00
38265;DHT22;24062;47.480;8.768;2024-01-16T06:15:03;20.90;49.10
38265;DHT22;24062;47.480;8.768;2024-01-16T06:17:30;20.80;49.00
38265;DHT22;24062;47.480;8.768;2024-01-16T06:19:57;20.70;49.00
38265;DHT22;24062;47.480;8.768;2024-01-16T06:22:24;20.90;49.10
38265;DHT22;24062;47.480;8.768;2024-01-16T06:24:52;20.80;49.00
38265;DHT22;24062;47.480;8.768;2024-01-16T06:27:19;20.80;49.20
38265;DHT22;24062;47.480;8.768;2024-01-16T06:29:46;20.70;49.10
38265;DHT22;24062;47.480;8.768;2024-01-16T06:32:13;20.70;49.20
38265;DHT22;24062;47.480;8.768;2024-01-16T06:34:40;20.70;49.20
38265;DHT22;24062;47.480;8.768;2024-01-16T06:37:07;20.70;49.30
38265;DHT22;24062;47.480;8.768;2024-01-16T06:39:35;20.70;49.20
38265;DHT22;24062;47.480;8.768;2024-01-16T06:42:04;20.70;49.20
38265;DHT22;24062;47.480;8.768;2024-01-16T06:44:31;20.70;49.20
38265;DHT22;24062;47.480;8.768;2024-01-16T06:46:57;20.70;49.20
38265;DHT22;24062;47.480;8.768;2024-01-16T06:49:24;20.70;49.20
38265;DHT22;24062;47.480;8.768;2024-01-16T06:51:52;20.70;49.20
38265;DHT22;24062;47.480;8.768;2024-01-16T06:54:19;20.60;49.10
38265;DHT22;24062;47.480;8.768;2024-01-16T06:56:49;20.60;49.10
38265;DHT22;24062;47.480;8.768;2024-01-16T06:59:17;20.60;49.10
38265;DHT22;24062;47.480;8.768;2024-01-16T07:01:47;20.60;49.10
38265;DHT22;24062;47.480;8.768;2024-01-16T07:04:14;20.50;49.00
38265;DHT22;24062;47.480;8.768;2024-01-16T07:06:40;20.50;49.00
38265;DHT22;24062;47.480;8.768;2024-01-16T07:09:07;20.50;49.00
38265;DHT22;24062;47.480;8.768;2024-01-16T07:11:36;20.50;49.00
38265;DHT22;24062;47.480;8.768;2024-01-16T07:14:02;20.40;48.90
38265;DHT22;24062;47.480;8.768;2024-01-16T07:16:31;20.40;49.00
38265;DHT22;24062;47.480;8.768;2024-01-16T07:18:58;20.40;48.90
38265;DHT22;24062;47.480;8.768;2024-01-16T07:21:25;20.30;48.80
38265;DHT22;24062;47.480;8.768;2024-01-16T07:23:52;20.30;48.80
38265;DHT22;24062;47.480;8.768;2024-01-16T07:26:18;20.30;48.90
38265;DHT22;24062;47.480;8.768;2024-01-16T07:28:45;20.30;48.80
38265;DHT22;24062;47.480;8.768;2024-01-16T07:31:13;20.30;48.80
38265;DHT22;24062;47.480;8.768;2024-01-16T07:33:43;20.30;48.80
38265;DHT22;24062;47.480;8.768;2024-01-16T07:36:11;20.30;48.90
38265;DHT22;24062;47.480;8.768;2024-01-16T07:38:38;20.20;48.70
38265;DHT22;24062;47.480;8.768;2024-01-16T07:41:05;20.20;48.70
38265;DHT22;24062;47.480;8.768;2024-01-16T07:43:32;20.30;48.80
38265;DHT22;24062;47.480;8.768;2024-01-16T07:45:59;20.20;48.70
38265;DHT22;24062;47.480;8.768;2024-01-16T07:48:26;20.20;48.60
38265;DHT22;24062;47.480;8.768;2024-01-16T07:50:55;20.20;48.70
38265;DHT22;24062;47.480;8.768;2024-01-16T07:53:21;20.20;48.70
38265;DHT22;24062;47.480;8.768;2024-01-16T07:55:48;20.20;48.70
38265;DHT22;24062;47.480;8.768;2024-01-16T07:58:15;20.20;48.60
38265;DHT22;24062;47.480;8.768;2024-01-16T08:00:42;20.20;48.60
38265;DHT22;24062;47.480;8.768;2024-01-16T08:03:09;20.20;48.50
38265;DHT22;24062;47.480;8.768;2024-01-16T08:05:37;20.20;48.50
38265;DHT22;24062;47.480;8.768;2024-01-16T08:08:07;20.20;48.40
38265;DHT22;24062;47.480;8.768;2024-01-16T08:10:35;20.20;48.90
38265;DHT22;24062;47.480;8.768;2024-01-16T08:13:02;20.30;48.40
38265;DHT22;24062;47.480;8.768;2024-01-16T08:15:28;20.30;48.30
38265;DHT22;24062;47.480;8.768;2024-01-16T08:17:55;20.30;48.30
38265;DHT22;24062;47.480;8.768;2024-01-16T08:20:22;20.30;48.20
38265;DHT22;24062;47.480;8.768;2024-01-16T08:22:49;20.30;48.10
38265;DHT22;24062;47.480;8.768;2024-01-16T08:25:18;20.30;48.10
38265;DHT22;24062;47.480;8.768;2024-01-16T08:27:44;20.30;48.10
38265;DHT22;24062;47.480;8.768;2024-01-16T08:30:12;20.30;48.10
38265;DHT22;24062;47.480;8.768;2024-01-16T08:32:39;20.30;48.10
38265;DHT22;24062;47.480;8.768;2024-01-16T08:35:06;20.40;48.10
38265;DHT22;24062;47.480;8.768;2024-01-16T08:37:34;20.40;48.00
38265;DHT22;24062;47.480;8.768;2024-01-16T08:40:01;20.40;48.00
38265;DHT22;24062;47.480;8.768;2024-01-16T08:42:31;20.40;47.90
38265;DHT22;24062;47.480;8.768;2024-01-16T08:44:58;20.60;48.00
38265;DHT22;24062;47.480;8.768;2024-01-16T08:47:25;20.60;47.80
38265;DHT22;24062;47.480;8.768;2024-01-16T08:49:52;20.80;47.80
38265;DHT22;24062;47.480;8.768;2024-01-16T08:52:18;20.70;47.50
38265;DHT22;24062;47.480;8.768;2024-01-16T08:54:45;20.70;47.50
38265;DHT22;24062;47.480;8.768;2024-01-16T08:57:13;20.70;47.50
38265;DHT22;24062;47.480;8.768;2024-01-16T08:59:41;20.70;47.50
38265;DHT22;24062;47.480;8.768;2024-01-16T09:02:08;20.60;47.50
38265;DHT22;24062;47.480;8.768;2024-01-16T09:04:35;20.70;47.60
38265;DHT22;24062;47.480;8.768;2024-01-16T09:07:03;21.00;47.60
38265;DHT22;24062;47.480;8.768;2024-01-16T09:09:30;21.30;47.30
38265;DHT22;24062;47.480;8.768;2024-01-16T09:11:57;21.30;47.00
38265;DHT22;24062;47.480;8.768;2024-01-16T09:14:24;21.50;47.00
38265;DHT22;24062;47.480;8.768;2024-01-16T09:16:53;22.00;46.70
38265;DHT22;24062;47.480;8.768;2024-01-16T09:19:20;22.50;46.20
38265;DHT22;24062;47.480;8.768;2024-01-16T09:21:48;23.00;45.80
38265;DHT22;24062;47.480;8.768;2024-01-16T09:24:15;23.20;45.40
38265;DHT22;24062;47.480;8.768;2024-01-16T09:26:42;23.20;45.10
38265;DHT22;24062;47.480;8.768;2024-01-16T09:29:09;22.90;44.90
38265;DHT22;24062;47.480;8.768;2024-01-16T09:31:36;22.70;45.20
38265;DHT22;24062;47.480;8.768;2024-01-16T09:34:05;22.60;45.40
38265;DHT22;24062;47.480;8.768;2024-01-16T09:36:32;22.50;46.00
38265;DHT22;24062;47.480;8.768;2024-01-16T09:39:01;22.60;45.60
38265;DHT22;24062;47.480;8.768;2024-01-16T09:41:28;22.80;45.50
38265;DHT22;24062;47.480;8.768;2024-01-16T09:43:58;22.70;45.30
38265;DHT22;24062;47.480;8.768;2024-01-16T09:46:26;22.70;45.30
38265;DHT22;24062;47.480;8.768;2024-01-16T09:48:54;22.70;45.20
38265;DHT22;24062;47.480;8.768;2024-01-16T09:51:23;22.80;45.20
38265;DHT22;24062;47.480;8.768;2024-01-16T09:53:50;22.80;45.30
38265;DHT22;24062;47.480;8.768;2024-01-16T09:56:21;22.70;45.40
38265;DHT22;24062;47.480;8.768;2024-01-16T09:58:51;22.50;45.50
38265;DHT22;24062;47.480;8.768;2024-01-16T10:01:21;22.40;45.60
38265;DHT22;24062;47.480;8.768;2024-01-16T10:03:49;22.30;45.60
38265;DHT22;24062;47.480;8.768;2024-01-16T10:06:19;22.30;45.70
38265;DHT22;24062;47.480;8.768;2024-01-16T10:08:47;22.20;45.80
38265;DHT22;24062;47.480;8.768;2024-01-16T10:11:14;22.20;45.90
38265;DHT22;24062;47.480;8.768;2024-01-16T10:13:41;22.10;45.80
38265;DHT22;24062;47.480;8.768;2024-01-16T10:16:09;22.10;45.90
38265;DHT22;24062;47.480;8.768;2024-01-16T10:18:36;22.00;46.00
38265;DHT22;24062;47.480;8.768;2024-01-16T10:21:04;22.00;46.00
38265;DHT22;24062;47.480;8.768;2024-01-16T10:23:32;21.90;46.00
38265;DHT22;24062;47.480;8.768;2024-01-16T10:26:07;21.80;46.00
38265;DHT22;24062;47.480;8.768;2024-01-16T10:28:35;21.80;46.00
38265;DHT22;24062;47.480;8.768;2024-01-16T10:31:03;21.80;46.10
38265;DHT22;24062;47.480;8.768;2024-01-16T10:33:30;21.70;46.10
38265;DHT22;24062;47.480;8.768;2024-01-16T10:36:12;21.70;46.20
38265;DHT22;24062;47.480;8.768;2024-01-16T10:38:39;21.60;46.20
38265;DHT22;24062;47.480;8.768;2024-01-16T10:41:11;21.60;46.30
38265;DHT22;24062;47.480;8.768;2024-01-16T10:43:39;21.60;47.00
38265;DHT22;24062;47.480;8.768;2024-01-16T10:46:10;21.50;46.30
38265;DHT22;24062;47.480;8.768;2024-01-16T10:48:38;21.50;46.40
38265;DHT22;24062;47.480;8.768;2024-01-16T10:51:07;21.50;46.40
38265;DHT22;24062;47.480;8.768;2024-01-16T10:53:34;21.50;46.30
38265;DHT22;24062;47.480;8.768;2024-01-16T10:56:02;21.60;46.40
38265;DHT22;24062;47.480;8.768;2024-01-16T10:58:35;21.50;46.40
38265;DHT22;24062;47.480;8.768;2024-01-16T11:01:03;21.50;46.40
38265;DHT22;24062;47.480;8.768;2024-01-16T11:03:40;21.40;46.30
38265;DHT22;24062;47.480;8.768;2024-01-16T11:06:07;21.40;46.40
38265;DHT22;24062;47.480;8.768;2024-01-16T11:08:36;21.40;46.40
38265;DHT22;24062;47.480;8.768;2024-01-16T11:11:04;21.40;46.40
38265;DHT22;24062;47.480;8.768;2024-01-16T11:13:33;21.40;46.40
38265;DHT22;24062;47.480;8.768;2024-01-16T11:16:02;21.40;46.40
38265;DHT22;24062;47.480;8.768;2024-01-16T11:18:30;21.40;46.50
38265;DHT22;24062;47.480;8.768;2024-01-16T11:20:58;21.40;46.50
38265;DHT22;24062;47.480;8.768;2024-01-16T11:23:26;21.40;46.50
38265;DHT22;24062;47.480;8.768;2024-01-16T11:25:53;21.30;46.40
38265;DHT22;24062;47.480;8.768;2024-01-16T11:28:20;21.40;46.40
38265;DHT22;24062;47.480;8.768;2024-01-16T11:30:48;21.40;46.40
38265;DHT22;24062;47.480;8.768;2024-01-16T11:33:43;21.40;46.40
38265;DHT22;24062;47.480;8.768;2024-01-16T11:36:49;21.50;46.50
38265;DHT22;24062;47.480;8.768;2024-01-16T11:39:20;21.40;46.40
38265;DHT22;24062;47.480;8.768;2024-01-16T11:41:51;21.50;46.50
38265;DHT22;24062;47.480;8.768;2024-01-16T11:44:35;21.40;46.40
38265;DHT22;24062;47.480;8.768;2024-01-16T11:47:04;21.40;46.40
38265;DHT22;24062;47.480;8.768;2024-01-16T11:49:31;21.40;46.40
38265;DHT22;24062;47.480;8.768;2024-01-16T11:51:58;21.50;46.40
38265;DHT22;24062;47.480;8.768;2024-01-16T11:54:25;21.40;46.40
38265;DHT22;24062;47.480;8.768;2024-01-16T11:59:58;21.40;47.00
38265;DHT22;24062;47.480;8.768;2024-01-16T12:02:36;21.40;46.40
38265;DHT22;24062;47.480;8.768;2024-01-16T12:05:05;21.50;46.50
38265;DHT22;24062;47.480;8.768;2024-01-16T12:07:45;21.50;46.40
38265;DHT22;24062;47.480;8.768;2024-01-16T12:10:12;21.50;46.40
38265;DHT22;24062;47.480;8.768;2024-01-16T12:12:40;21.50;46.40
38265;DHT22;24062;47.480;8.768;2024-01-16T12:15:12;21.50;46.40
38265;DHT22;24062;47.480;8.768;2024-01-16T12:17:52;21.50;46.40
38265;DHT22;24062;47.480;8.768;2024-01-16T12:20:20;21.60;46.40
38265;DHT22;24062;47.480;8.768;2024-01-16T12:22:53;21.60;46.40
38265;DHT22;24062;47.480;8.768;2024-01-16T12:25:20;21.70;46.50
38265;DHT22;24062;47.480;8.768;2024-01-16T12:27:54;21.70;46.40
38265;DHT22;24062;47.480;8.768;2024-01-16T12:30:23;21.80;46.40
38265;DHT22;24062;47.480;8.768;2024-01-16T12:32:51;21.90;46.50
38265;DHT22;24062;47.480;8.768;2024-01-16T12:35:22;21.90;46.40
38265;DHT22;24062;47.480;8.768;2024-01-16T12:37:59;21.90;46.40
38265;DHT22;24062;47.480;8.768;2024-01-16T12:40:26;22.00;46.30
38265;DHT22;24062;47.480;8.768;2024-01-16T12:42:53;22.10;46.30
38265;DHT22;24062;47.480;8.768;2024-01-16T12:45:21;22.10;46.30
38265;DHT22;24062;47.480;8.768;2024-01-16T12:47:53;22.20;46.30
38265;DHT22;24062;47.480;8.768;2024-01-16T12:50:24;22.20;46.20
38265;DHT22;24062;47.480;8.768;2024-01-16T12:53:02;22.20;46.80
38265;DHT22;24062;47.480;8.768;2024-01-16T12:55:30;22.30;46.10
38265;DHT22;24062;47.480;8.768;2024-01-16T12:58:16;22.30;46.10
38265;DHT22;24062;47.480;8.768;2024-01-16T13:00:43;22.30;46.10
38265;DHT22;24062;47.480;8.768;2024-01-16T13:03:16;22.30;46.10
38265;DHT22;24062;47.480;8.768;2024-01-16T13:05:44;22.30;46.00
38265;DHT22;24062;47.480;8.768;2024-01-16T13:08:17;22.30;46.00
38265;DHT22;24062;47.480;8.768;2024-01-16T13:10:46;22.40;46.10
38265;DHT22;24062;47.480;8.768;2024-01-16T13:13:14;22.40;46.10
38265;DHT22;24062;47.480;8.768;2024-01-16T13:15:43;22.40;46.00
38265;DHT22;24062;47.480;8.768;2024-01-16T13:18:21;22.40;46.10
38265;DHT22;24062;47.480;8.768;2024-01-16T13:20:49;22.50;46.20
38265;DHT22;24062;47.480;8.768;2024-01-16T13:23:17;22.30;46.00
38265;DHT22;24062;47.480;8.768;2024-01-16T13:25:45;22.30;46.00
38265;DHT22;24062;47.480;8.768;2024-01-16T13:28:12;22.40;46.00
38265;DHT22;24062;47.480;8.768;2024-01-16T13:30:39;22.40;46.00
38265;DHT22;24062;47.480;8.768;2024-01-16T13:33:07;22.40;46.00
38265;DHT22;24062;47.480;8.768;2024-01-16T13:35:37;22.40;45.90
38265;DHT22;24062;47.480;8.768;2024-01-16T13:38:05;22.40;45.90
38265;DHT22;24062;47.480;8.768;2024-01-16T13:40:32;22.40;45.90
38265;DHT22;24062;47.480;8.768;2024-01-16T13:42:59;22.40;45.90
38265;DHT22;24062;47.480;8.768;2024-01-16T13:45:26;22.50;46.00
38265;DHT22;24062;47.480;8.768;2024-01-16T13:47:53;22.50;46.00
38265;DHT22;24062;47.480;8.768;2024-01-16T13:50:20;22.60;46.00
38265;DHT22;24062;47.480;8.768;2024-01-16T13:52:49;22.50;45.90
38265;DHT22;24062;47.480;8.768;2024-01-16T13:55:17;22.40;45.80
38265;DHT22;24062;47.480;8.768;2024-01-16T13:57:44;22.50;46.00
38265;DHT22;24062;47.480;8.768;2024-01-16T14:00:13;22.50;45.90
38265;DHT22;24062;47.480;8.768;2024-01-16T14:02:41;22.50;46.00
38265;DHT22;24062;47.480;8.768;2024-01-16T14:05:08;22.50;45.90
38265;DHT22;24062;47.480;8.768;2024-01-16T14:07:36;22.50;46.50
38265;DHT22;24062;47.480;8.768;2024-01-16T14:10:08;22.50;45.90
38265;DHT22;24062;47.480;8.768;2024-01-16T14:12:37;22.50;45.80
38265;DHT22;24062;47.480;8.768;2024-01-16T14:15:05;22.50;45.80
38265;DHT22;24062;47.480;8.768;2024-01-16T14:17:41;22.50;45.80
38265;DHT22;24062;47.480;8.768;2024-01-16T14:20:09;22.50;45.80
38265;DHT22;24062;47.480;8.768;2024-01-16T14:22:37;22.50;45.80
38265;DHT22;24062;47.480;8.768;2024-01-16T14:25:06;22.50;45.80
38265;DHT22;24062;47.480;8.768;2024-01-16T14:27:37;22.50;45.80
38265;DHT22;24062;47.480;8.768;2024-01-16T14:30:06;22.50;45.80
38265;DHT22;24062;47.480;8.768;2024-01-16T14:32:33;22.50;45.70
38265;DHT22;24062;47.480;8.768;2024-01-16T14:35:00;22.50;45.80
38265;DHT22;24062;47.480;8.768;2024-01-16T14:37:29;22.50;45.80
38265;DHT22;24062;47.480;8.768;2024-01-16T14:39:57;22.50;45.70
38265;DHT22;24062;47.480;8.768;2024-01-16T14:42:28;22.50;45.80
38265;DHT22;24062;47.480;8.768;2024-01-16T14:44:55;22.50;45.70
38265;DHT22;24062;47.480;8.768;2024-01-16T14:47:21;22.50;45.70
38265;DHT22;24062;47.480;8.768;2024-01-16T14:49:49;22.50;46.00
38265;DHT22;24062;47.480;8.768;2024-01-16T14:52:16;22.50;45.80
38265;DHT22;24062;47.480;8.768;2024-01-16T14:54:43;22.50;45.80
38265;DHT22;24062;47.480;8.768;2024-01-16T14:57:11;22.50;45.80
38265;DHT22;24062;47.480;8.768;2024-01-16T14:59:39;22.50;45.70
38265;DHT22;24062;47.480;8.768;2024-01-16T15:02:06;22.50;45.70
38265;DHT22;24062;47.480;8.768;2024-01-16T15:04:38;22.50;45.70
38265;DHT22;24062;47.480;8.768;2024-01-16T15:07:05;22.50;45.70
38265;DHT22;24062;47.480;8.768;2024-01-16T15:09:32;22.50;45.70
38265;DHT22;24062;47.480;8.768;2024-01-16T15:12:00;22.50;45.70
38265;DHT22;24062;47.480;8.768;2024-01-16T15:14:28;22.50;45.80
38265;DHT22;24062;47.480;8.768;2024-01-16T15:16:56;22.50;45.70
38265;DHT22;24062;47.480;8.768;2024-01-16T15:19:23;22.50;45.70
38265;DHT22;24062;47.480;8.768;2024-01-16T15:21:50;22.50;45.70
38265;DHT22;24062;47.480;8.768;2024-01-16T15:24:17;22.50;45.70
38265;DHT22;24062;47.480;8.768;2024-01-16T15:26:51;22.50;45.70
38265;DHT22;24062;47.480;8.768;2024-01-16T15:29:18;22.50;45.70
38265;DHT22;24062;47.480;8.768;2024-01-16T15:31:45;22.50;45.70
38265;DHT22;24062;47.480;8.768;2024-01-16T15:34:14;22.50;45.80
38265;DHT22;24062;47.480;8.768;2024-01-16T15:36:41;22.50;45.80
38265;DHT22;24062;47.480;8.768;2024-01-16T15:39:08;22.50;45.80